Time;durP1;ratioP1;P1;durP2;ratioP2;P2;SDS_P1;SDS_P2;PMS_P1;PMS_P2;Temp;Humidity;BMP_temperature;BMP_pressure;BME280_temperature;BME280_humidity;BME280_pressure;Samples;Min_cycle;Max_cycle;Signal;HPM_P1;HPM_P2
2022/07/05 00:01:05;;;;;;;4.82;3.70;;;;;;;17.92;60.10;102003.28;5111641;28;20088;-69
2022/07/05 00:03:30;;;;;;;4.63;3.70;;;;;;;17.88;60.27;101995.53;5130482;28;20038;-69
2022/07/05 00:05:59;;;;;;;5.18;3.28;;;;;;;17.81;60.46;102005.06;5130704;28;20405;-69
2022/07/05 00:08:26;;;;;;;5.03;3.55;;;;;;;17.77;60.70;102008.94;5113879;28;20090;-69
2022/07/05 00:10:51;;;;;;;3.72;3.42;;;;;;;17.72;60.68;102006.56;5129989;28;20083;-69
2022/07/05 00:13:17;;;;;;;6.07;3.80;;;;;;;17.63;60.94;101981.22;5112124;28;20596;-69
2022/07/05 00:15:43;;;;;;;5.38;3.50;;;;;;;17.58;61.12;101991.44;5130536;28;20046;-70
2022/07/05 00:18:08;;;;;;;4.47;3.38;;;;;;;17.63;60.95;101989.28;5063251;28;20032;-69
2022/07/05 00:20:34;;;;;;;5.47;3.33;;;;;;;17.61;60.92;101988.53;5110727;28;20401;-69
2022/07/05 00:22:59;;;;;;;4.40;3.67;;;;;;;17.53;61.06;101979.31;5110997;28;20042;-70
2022/07/05 00:25:27;;;;;;;5.40;3.78;;;;;;;17.52;61.50;101988.38;5093746;28;20060;-69
2022/07/05 00:27:53;;;;;;;6.93;4.05;;;;;;;17.53;61.34;101992.75;5112003;28;20031;-70
2022/07/05 00:30:19;;;;;;;3.92;3.53;;;;;;;17.41;61.28;101994.53;5112602;28;20043;-69
2022/07/05 00:32:44;;;;;;;5.72;3.83;;;;;;;17.38;61.71;101989.38;5130066;28;20163;-70
2022/07/05 00:35:10;;;;;;;4.95;4.10;;;;;;;17.38;61.65;101992.06;5129741;28;20027;-70
2022/07/05 00:37:35;;;;;;;5.75;4.22;;;;;;;17.33;61.97;101991.56;5110088;28;20412;-69
2022/07/05 00:40:01;;;;;;;4.55;4.15;;;;;;;17.21;62.21;101986.13;5130356;28;20135;-70
2022/07/05 00:42:26;;;;;;;4.97;4.10;;;;;;;17.08;62.82;101982.59;5112998;27;20079;-69
2022/07/05 00:44:52;;;;;;;4.07;3.65;;;;;;;17.14;62.65;101992.03;5110610;28;20047;-69
2022/07/05 00:47:18;;;;;;;6.32;4.00;;;;;;;17.19;62.50;101989.88;5112544;28;20467;-69
2022/07/05 00:49:44;;;;;;;7.05;3.88;;;;;;;17.12;62.58;101985.91;5113111;28;20034;-70
2022/07/05 00:52:11;;;;;;;5.72;4.13;;;;;;;17.04;62.94;101989.16;5111084;28;20379;-70
2022/07/05 00:54:39;;;;;;;6.97;4.45;;;;;;;17.06;62.79;101983.66;5111396;28;20059;-69
2022/07/05 00:57:07;;;;;;;5.55;4.50;;;;;;;16.96;62.76;101992.38;5113618;28;20024;-69
2022/07/05 00:59:34;;;;;;;6.70;4.18;;;;;;;16.96;62.88;101984.31;5113106;28;20023;-69
2022/07/05 01:02:00;;;;;;;5.28;4.68;;;;;;;16.90;63.04;101994.66;5112462;28;20031;-69
2022/07/05 01:04:25;;;;;;;6.82;5.15;;;;;;;16.86;63.13;101993.19;5111771;28;20077;-69
2022/07/05 01:06:53;;;;;;;7.50;4.40;;;;;;;16.87;63.09;101987.69;5111955;28;20058;-69
2022/07/05 01:09:21;;;;;;;5.75;4.63;;;;;;;16.75;63.64;101991.22;5112266;28;20027;-69
2022/07/05 01:11:50;;;;;;;5.38;4.78;;;;;;;16.72;63.65;101996.81;5111721;28;20445;-70
2022/07/05 01:14:20;;;;;;;5.72;4.68;;;;;;;16.66;63.64;101994.56;5113933;28;20470;-69
2022/07/05 01:16:45;;;;;;;;;;;;;;;16.96;61.25;101994.22;5113769;28;20016;-69
2022/07/05 01:19:12;;;;;;;4.40;3.97;;;;;;;16.67;63.39;101989.06;5109540;28;19919;-69
2022/07/05 01:21:43;;;;;;;8.70;4.80;;;;;;;16.52;63.51;101980.25;5111878;28;20040;-69
2022/07/05 01:24:13;;;;;;;5.75;4.93;;;;;;;16.47;63.66;101986.91;5112072;28;20032;-69
2022/07/05 01:26:40;;;;;;;5.65;5.05;;;;;;;16.42;63.70;101999.81;5111654;28;20035;-69
2022/07/05 01:29:09;;;;;;;6.43;5.10;;;;;;;16.43;64.16;101997.00;5112280;28;20076;-69
2022/07/05 01:31:41;;;;;;;6.05;5.03;;;;;;;16.32;64.22;101995.09;5113410;28;20019;-70
2022/07/05 01:34:07;;;;;;;6.13;5.00;;;;;;;16.24;64.38;101985.84;5112006;28;20054;-69
2022/07/05 01:36:34;;;;;;;5.97;4.82;;;;;;;16.24;64.54;101996.56;5108219;28;20103;-70
2022/07/05 01:39:01;;;;;;;6.13;5.13;;;;;;;16.23;64.29;101989.47;5111370;28;20120;-69
2022/07/05 01:41:26;;;;;;;5.72;5.22;;;;;;;16.13;64.62;101997.31;5112688;28;20482;-70
2022/07/05 01:43:52;;;;;;;5.65;5.13;;;;;;;16.21;64.38;101999.47;5110558;28;20047;-69
2022/07/05 01:46:21;;;;;;;6.82;5.07;;;;;;;16.12;64.88;102001.81;5110535;28;20071;-70
2022/07/05 01:48:49;;;;;;;6.07;5.22;;;;;;;16.10;64.66;101993.00;5111717;28;20028;-69
2022/07/05 01:51:25;;;;;;;6.15;5.03;;;;;;;16.17;64.48;101996.13;5110225;28;20038;-69
2022/07/05 01:53:52;;;;;;;6.18;5.40;;;;;;;16.11;64.64;101994.72;5112335;28;20431;-69
2022/07/05 01:56:19;;;;;;;5.40;4.90;;;;;;;16.13;64.62;101998.16;5111630;28;20466;-69
2022/07/05 01:58:47;;;;;;;6.03;5.10;;;;;;;16.09;64.52;101995.81;5112764;28;20031;-69
2022/07/05 02:01:13;;;;;;;6.20;5.60;;;;;;;16.06;64.85;101996.88;5110383;28;20115;-69
2022/07/05 02:03:39;;;;;;;5.80;5.30;;;;;;;15.99;64.92;101995.53;5111499;28;20501;-70
2022/07/05 02:06:08;;;;;;;5.95;5.40;;;;;;;15.87;64.96;101977.59;5112014;28;20668;-69
2022/07/05 02:08:34;;;;;;;6.20;5.53;;;;;;;15.93;64.96;101984.38;5108948;28;20111;-69
2022/07/05 02:10:59;;;;;;;6.07;5.50;;;;;;;15.92;65.03;101980.84;5111375;28;20102;-69
2022/07/05 02:13:25;;;;;;;6.65;5.95;;;;;;;15.95;64.98;101983.31;5078599;28;20391;-69
2022/07/05 02:15:50;;;;;;;7.03;6.03;;;;;;;15.93;65.25;101979.00;5109604;28;20051;-69
2022/07/05 02:18:15;;;;;;;7.60;6.03;;;;;;;15.88;65.15;101990.03;5109044;28;20032;-70
2022/07/05 02:20:41;;;;;;;7.78;6.30;;;;;;;15.70;65.83;101976.03;5091824;28;20036;-70
2022/07/05 02:23:08;;;;;;;7.05;5.88;;;;;;;15.83;65.40;101986.81;5112113;28;20438;-70
2022/07/05 02:25:35;;;;;;;6.90;6.10;;;;;;;15.73;66.02;101989.25;5108601;28;20489;-70
2022/07/05 02:28:02;;;;;;;6.75;6.03;;;;;;;15.69;66.24;101978.84;5110649;28;20032;-69
2022/07/05 02:30:27;;;;;;;7.10;6.25;;;;;;;15.72;65.93;101981.31;5109790;28;20487;-70
2022/07/05 02:32:53;;;;;;;8.10;5.90;;;;;;;15.62;66.26;101986.41;5093147;28;20394;-69
2022/07/05 02:35:20;;;;;;;6.65;6.05;;;;;;;15.59;66.27;101982.09;5109567;28;20087;-70
2022/07/05 02:37:47;;;;;;;7.30;6.10;;;;;;;15.50;66.62;101982.72;5110402;28;20023;-70
2022/07/05 02:40:13;;;;;;;6.50;5.40;;;;;;;15.57;66.52;101988.53;5110940;28;20020;-69
2022/07/05 02:42:40;;;;;;;6.95;5.60;;;;;;;15.52;66.51;101985.28;5109709;28;20034;-70
2022/07/05 02:45:07;;;;;;;6.95;6.25;;;;;;;15.49;66.62;101989.00;5125128;27;20043;-70
2022/07/05 02:47:36;;;;;;;7.32;6.63;;;;;;;15.51;66.38;101984.41;5113421;27;20027;-70
2022/07/05 02:50:06;;;;;;;8.83;6.87;;;;;;;15.42;66.71;101993.91;5129834;27;20023;-71
2022/07/05 02:52:34;;;;;;;10.10;7.18;;;;;;;15.32;66.99;101987.41;5131906;27;20067;-70
2022/07/05 02:55:00;;;;;;;8.68;7.20;;;;;;;15.34;67.03;101988.19;5131344;27;20035;-70
2022/07/05 02:57:25;;;;;;;8.90;6.70;;;;;;;15.28;67.30;101990.41;5132190;27;20080;-70
2022/07/05 02:59:56;;;;;;;8.07;6.68;;;;;;;15.21;67.36;101988.13;5113343;27;20035;-70
2022/07/05 03:02:22;;;;;;;7.25;6.55;;;;;;;15.22;67.53;101989.00;5130649;27;20037;-70
2022/07/05 03:04:50;;;;;;;7.50;6.65;;;;;;;15.09;67.82;101982.69;5131873;27;20054;-70
2022/07/05 03:07:16;;;;;;;7.30;6.57;;;;;;;15.21;67.32;101984.59;5113234;27;20027;-70
2022/07/05 03:09:42;;;;;;;8.82;7.18;;;;;;;15.14;67.46;101993.97;5131891;27;20027;-70
2022/07/05 03:12:07;;;;;;;7.15;6.35;;;;;;;15.18;67.45;101999.06;5129648;27;20038;-71
2022/07/05 03:14:33;;;;;;;9.38;7.82;;;;;;;15.06;67.67;101999.84;5129643;27;20223;-71
2022/07/05 03:16:59;;;;;;;7.72;7.03;;;;;;;15.08;67.75;102010.44;5130317;27;20034;-71
2022/07/05 03:19:25;;;;;;;7.47;6.70;;;;;;;14.96;68.13;102010.25;5128670;27;20098;-70
2022/07/05 03:21:50;;;;;;;10.75;7.78;;;;;;;15.10;67.50;102014.75;5131067;27;20126;-70
2022/07/05 03:24:19;;;;;;;9.70;7.53;;;;;;;15.07;67.96;102014.09;5113154;27;20394;-71
2022/07/05 03:26:44;;;;;;;9.85;7.63;;;;;;;15.11;67.69;102010.25;5130139;27;20023;-70
2022/07/05 03:29:12;;;;;;;8.25;7.40;;;;;;;15.06;67.93;102013.22;5130093;27;20043;-71
2022/07/05 03:31:37;;;;;;;7.78;7.07;;;;;;;14.90;68.15;102013.31;5131556;27;20027;-71
2022/07/05 03:34:03;;;;;;;8.43;7.55;;;;;;;14.87;68.20;102015.34;5094928;27;20597;-70
2022/07/05 03:36:31;;;;;;;8.48;7.57;;;;;;;14.95;68.23;102013.03;5112447;27;20435;-70
2022/07/05 03:38:56;;;;;;;8.68;7.78;;;;;;;14.90;68.18;102009.78;5112762;28;20144;-71
2022/07/05 03:41:21;;;;;;;10.52;7.13;;;;;;;14.88;68.19;102009.91;5112845;28;20118;-70
2022/07/05 03:43:47;;;;;;;9.43;7.35;;;;;;;14.94;67.98;102014.88;5109462;28;20060;-70
2022/07/05 03:46:12;;;;;;;9.18;7.60;;;;;;;14.99;68.13;102022.59;5109515;28;20023;-70
2022/07/05 03:48:38;;;;;;;7.85;7.13;;;;;;;14.96;68.38;102023.66;5073704;28;20031;-70
2022/07/05 03:51:06;;;;;;;8.60;7.70;;;;;;;14.94;68.69;102022.03;5110461;28;20035;-70
2022/07/05 03:53:32;;;;;;;8.00;7.20;;;;;;;14.98;68.28;102023.56;5092716;28;20027;-70
2022/07/05 03:55:58;;;;;;;8.20;7.40;;;;;;;14.92;68.76;102026.63;5110506;28;20092;-70
2022/07/05 03:58:24;;;;;;;8.55;7.75;;;;;;;14.90;69.09;102028.53;5110112;28;20023;-70
2022/07/05 04:00:49;;;;;;;7.88;7.07;;;;;;;14.95;69.22;102029.13;5107057;28;20501;-70
2022/07/05 04:03:14;;;;;;;8.13;7.32;;;;;;;14.94;69.46;102033.63;5106825;28;22296;-70
2022/07/05 04:05:41;;;;;;;8.23;7.43;;;;;;;15.02;69.37;102033.13;5107284;28;20039;-70
2022/07/05 04:08:06;;;;;;;8.30;7.43;;;;;;;15.11;69.13;102029.88;5109176;28;20023;-71
2022/07/05 04:10:32;;;;;;;8.85;7.90;;;;;;;15.12;68.69;102038.78;5109277;28;20027;-70
2022/07/05 04:12:57;;;;;;;8.13;7.43;;;;;;;15.20;68.69;102036.47;5108310;28;20509;-70
2022/07/05 04:15:23;;;;;;;8.60;7.70;;;;;;;15.20;69.78;102037.31;5109296;28;20512;-70
2022/07/05 04:17:55;;;;;;;8.70;7.90;;;;;;;15.15;69.69;102041.28;5109409;28;20102;-70
2022/07/05 04:20:22;;;;;;;9.15;7.85;;;;;;;15.14;69.44;102047.56;5110168;28;20036;-70
2022/07/05 04:22:48;;;;;;;9.32;8.10;;;;;;;15.21;69.90;102046.25;5114140;27;20027;-70
2022/07/05 04:25:17;;;;;;;11.48;7.57;;;;;;;15.34;70.03;102049.00;5113144;27;20023;-70
2022/07/05 04:27:53;;;;;;;9.38;7.93;;;;;;;15.36;69.84;102045.25;5114683;28;20026;-70
2022/07/05 04:30:23;;;;;;;9.10;8.20;;;;;;;15.40;70.24;102037.88;5114701;28;20023;-70
2022/07/05 04:32:48;;;;;;;8.73;7.82;;;;;;;15.49;69.39;102036.41;5112942;28;20083;-71
2022/07/05 04:35:14;;;;;;;9.20;8.32;;;;;;;15.49;69.29;102049.81;5112737;28;20432;-71
2022/07/05 04:37:40;;;;;;;9.38;8.05;;;;;;;15.48;69.33;102045.44;5111283;28;20094;-70
2022/07/05 04:40:08;;;;;;;9.77;8.75;;;;;;;15.47;69.62;102046.38;5114375;28;20114;-70
2022/07/05 04:42:34;;;;;;;9.57;8.55;;;;;;;15.53;69.87;102032.56;5114229;28;20062;-71
2022/07/05 04:44:59;;;;;;;11.30;9.68;;;;;;;15.55;69.04;102039.56;5112612;28;20071;-71
2022/07/05 04:47:26;;;;;;;11.18;8.65;;;;;;;15.51;70.03;102039.88;5112838;28;20081;-70
2022/07/05 04:49:52;;;;;;;10.05;8.80;;;;;;;15.57;69.80;102037.66;5112819;28;20031;-70
2022/07/05 04:52:17;;;;;;;10.20;9.23;;;;;;;15.64;69.03;102046.13;5112182;28;20024;-70
2022/07/05 04:54:44;;;;;;;10.07;8.57;;;;;;;15.66;69.47;102037.03;5112746;28;20058;-71
2022/07/05 04:57:10;;;;;;;11.90;9.55;;;;;;;15.65;69.16;102032.66;5113126;28;20065;-70
2022/07/05 04:59:35;;;;;;;12.65;10.02;;;;;;;15.75;69.13;102040.13;5111557;28;20032;-71
2022/07/05 05:02:01;;;;;;;10.73;9.73;;;;;;;15.71;69.31;102042.16;5112104;28;20069;-70
2022/07/05 05:04:26;;;;;;;10.35;9.35;;;;;;;15.79;69.27;102049.66;5111926;28;20031;-70
2022/07/05 05:06:52;;;;;;;11.35;10.18;;;;;;;15.83;69.35;102043.16;5112306;28;20036;-71
2022/07/05 05:09:20;;;;;;;11.50;9.20;;;;;;;15.78;69.44;102046.13;5113316;28;20474;-71
2022/07/05 05:11:46;;;;;;;10.90;9.75;;;;;;;15.90;69.53;102045.31;5112231;28;20062;-70
2022/07/05 05:14:11;;;;;;;11.02;9.40;;;;;;;16.02;69.27;102045.47;5112088;28;20047;-70
2022/07/05 05:16:37;;;;;;;13.90;9.77;;;;;;;16.04;68.88;102049.78;5111747;28;20040;-70
2022/07/05 05:19:02;;;;;;;12.75;9.98;;;;;;;15.95;68.53;102045.03;5111302;28;20027;-70
2022/07/05 05:21:28;;;;;;;13.82;10.18;;;;;;;15.97;68.86;102044.91;5112486;28;20092;-70
2022/07/05 05:23:54;;;;;;;14.65;10.13;;;;;;;16.08;68.99;102051.28;5113990;28;20114;-70
2022/07/05 05:26:20;;;;;;;12.25;10.63;;;;;;;16.03;69.41;102055.22;5113251;28;20030;-71
2022/07/05 05:28:46;;;;;;;10.98;9.85;;;;;;;16.08;69.00;102062.00;5112830;28;20035;-71
2022/07/05 05:31:11;;;;;;;13.80;10.68;;;;;;;16.15;68.90;102065.16;5111712;28;20110;-70
2022/07/05 05:33:36;;;;;;;12.52;11.20;;;;;;;16.04;68.55;102049.78;5113006;28;20766;-70
2022/07/05 05:36:05;;;;;;;13.13;11.23;;;;;;;16.27;68.78;102066.16;5111329;28;20028;-70
2022/07/05 05:38:31;;;;;;;12.27;11.00;;;;;;;16.25;68.45;102070.78;5111896;28;20042;-71
2022/07/05 05:40:57;;;;;;;11.65;10.00;;;;;;;16.32;69.25;102070.25;5113426;28;20031;-71
2022/07/05 05:43:22;;;;;;;13.20;11.13;;;;;;;16.33;68.33;102071.13;5111762;28;20122;-70
2022/07/05 05:45:48;;;;;;;12.00;10.68;;;;;;;16.40;68.62;102083.16;5089100;28;20048;-70
2022/07/05 05:48:13;;;;;;;12.15;10.95;;;;;;;16.43;68.76;102071.34;5090282;28;20133;-71
2022/07/05 05:50:39;;;;;;;15.48;11.10;;;;;;;16.49;68.68;102077.16;5092264;28;20028;-70
2022/07/05 05:53:05;;;;;;;16.95;12.77;;;;;;;16.52;68.42;102084.13;5091946;28;20099;-71
2022/07/05 05:55:32;;;;;;;14.52;11.52;;;;;;;16.53;69.63;102083.16;5092543;28;20059;-70
2022/07/05 05:58:25;;;;;;;14.52;11.73;;;;;;;16.62;69.40;102087.94;5089214;28;20022;-71
2022/07/05 06:01:08;;;;;;;15.55;11.57;;;;;;;16.72;69.33;102088.16;5088585;28;20119;-70
2022/07/05 06:03:33;;;;;;;15.23;11.05;;;;;;;16.83;68.27;102095.50;5088533;28;20459;-71
2022/07/05 06:05:59;;;;;;;15.02;11.88;;;;;;;16.72;67.93;102097.06;5072278;28;20639;-70
2022/07/05 06:08:24;;;;;;;17.10;12.57;;;;;;;16.83;67.78;102095.50;5055139;28;20082;-70
2022/07/05 06:10:50;;;;;;;16.38;13.05;;;;;;;16.77;67.88;102084.22;5054772;28;20040;-70
2022/07/05 06:13:16;;;;;;;14.73;12.05;;;;;;;16.84;68.12;102097.22;5071366;28;20403;-70
2022/07/05 06:15:43;;;;;;;16.40;12.90;;;;;;;16.87;67.66;102094.31;5071584;28;20035;-70
2022/07/05 06:18:10;;;;;;;16.73;12.93;;;;;;;16.97;67.08;102106.13;5089663;28;20035;-71
2022/07/05 06:20:39;;;;;;;16.77;13.70;;;;;;;17.01;68.65;102099.59;5087594;28;20107;-70
2022/07/05 06:23:06;;;;;;;15.93;13.65;;;;;;;16.98;67.48;102094.44;5089138;28;20073;-70
2022/07/05 06:25:32;;;;;;;13.80;11.60;;;;;;;17.08;66.30;102108.94;5088196;28;20028;-70
2022/07/05 06:28:08;;;;;;;15.20;12.82;;;;;;;17.12;67.31;102105.06;5072238;28;20032;-70
2022/07/05 06:30:35;;;;;;;16.27;13.25;;;;;;;17.06;66.27;102094.75;5088170;28;20035;-70
2022/07/05 06:33:01;;;;;;;14.25;11.93;;;;;;;17.21;66.69;102104.41;5087074;28;20036;-70
2022/07/05 06:35:27;;;;;;;13.15;11.75;;;;;;;17.23;65.79;102110.53;5070287;28;20130;-70
2022/07/05 06:37:57;;;;;;;13.18;10.65;;;;;;;17.25;65.35;102110.44;5088410;28;20484;-70
2022/07/05 06:40:29;;;;;;;11.52;10.40;;;;;;;17.21;65.11;102111.63;5089289;28;20024;-69
2022/07/05 06:42:56;;;;;;;13.40;11.52;;;;;;;17.30;65.39;102112.81;5089190;28;20114;-70
2022/07/05 06:45:23;;;;;;;14.05;11.27;;;;;;;17.32;64.92;102114.38;5123921;27;20045;-69
2022/07/05 06:47:55;;;;;;;12.23;10.50;;;;;;;17.41;65.52;102112.88;5113986;27;20043;-70
2022/07/05 06:50:21;;;;;;;12.00;10.80;;;;;;;17.52;65.25;102120.19;5128465;27;20474;-70
2022/07/05 06:52:47;;;;;;;12.77;11.18;;;;;;;17.56;64.94;102117.19;5131362;27;20067;-69
2022/07/05 06:55:12;;;;;;;14.20;10.93;;;;;;;17.58;64.74;102120.59;5131709;27;20037;-70
2022/07/05 06:57:40;;;;;;;16.63;10.90;;;;;;;17.52;65.53;102118.34;5112336;27;20030;-70
2022/07/05 07:00:06;;;;;;;13.00;11.57;;;;;;;17.43;65.79;102110.94;5111279;27;20470;-70
2022/07/05 07:02:32;;;;;;;14.85;10.88;;;;;;;17.51;65.64;102105.03;5129003;27;20057;-70
2022/07/05 07:04:57;;;;;;;12.80;10.45;;;;;;;17.70;65.92;102121.53;5132388;27;20031;-69
2022/07/05 07:10:24;;;;;;;14.80;10.88;;;;;;;18.17;65.00;102114.50;5080138;28;20499;-70
2022/07/05 07:12:50;;;;;;;13.10;11.02;;;;;;;18.56;65.12;102117.84;5117782;27;20080;-69
2022/07/05 07:15:15;;;;;;;15.75;9.68;;;;;;;18.68;64.02;102122.31;5096000;27;20084;-69
2022/07/05 07:17:40;;;;;;;10.43;8.73;;;;;;;18.68;63.74;102116.03;5113284;27;20023;-69
2022/07/05 07:20:06;;;;;;;12.32;8.05;;;;;;;18.63;64.45;102119.09;5113514;27;20035;-69
2022/07/05 07:22:32;;;;;;;9.07;7.45;;;;;;;18.70;65.34;102117.63;5112361;28;20447;-69
2022/07/05 07:25:00;;;;;;;13.60;7.93;;;;;;;18.66;64.32;102120.69;5131079;27;20129;-69
2022/07/05 07:27:27;;;;;;;17.27;8.57;;;;;;;18.57;64.71;102123.13;5113446;27;20027;-69
2022/07/05 07:29:53;;;;;;;13.13;7.47;;;;;;;18.63;64.76;102124.50;5132259;27;20504;-70
2022/07/05 07:32:19;;;;;;;13.63;7.72;;;;;;;18.68;65.07;102121.41;5113172;27;20035;-70
2022/07/05 07:34:44;;;;;;;14.25;7.55;;;;;;;18.63;65.29;102121.78;5131638;27;20063;-69
2022/07/05 07:37:13;;;;;;;17.83;9.75;;;;;;;18.65;65.34;102127.06;5112913;28;20034;-69
2022/07/05 07:39:39;;;;;;;11.93;7.40;;;;;;;18.67;65.04;102125.09;5131766;27;20027;-69
2022/07/05 07:42:06;;;;;;;16.63;7.93;;;;;;;18.62;65.28;102136.25;5131836;28;20027;-70
2022/07/05 07:44:31;;;;;;;12.43;6.55;;;;;;;18.77;65.81;102132.41;5130733;28;20509;-70
2022/07/05 07:46:58;;;;;;;12.95;7.63;;;;;;;18.77;66.15;102140.50;5113299;28;20039;-70
2022/07/05 07:49:24;;;;;;;14.10;7.65;;;;;;;18.82;66.12;102137.41;5131871;28;20486;-70
2022/07/05 07:51:51;;;;;;;14.55;8.63;;;;;;;18.75;66.14;102134.34;5131397;27;20135;-69
2022/07/05 07:54:16;;;;;;;18.15;9.50;;;;;;;18.87;66.96;102131.69;5115784;27;20030;-69
2022/07/05 07:56:42;;;;;;;16.17;8.73;;;;;;;18.87;65.97;102135.25;5135524;27;20027;-69
2022/07/05 07:59:10;;;;;;;13.25;8.52;;;;;;;18.86;66.42;102133.53;5135857;27;20374;-70
2022/07/05 08:01:36;;;;;;;14.93;9.50;;;;;;;18.91;66.21;102131.31;5117757;27;20041;-68
2022/07/05 08:04:02;;;;;;;19.05;9.25;;;;;;;19.00;66.17;102133.31;5117463;27;20027;-69
2022/07/05 08:06:30;;;;;;;19.35;9.90;;;;;;;19.08;65.87;102134.53;5114405;27;20539;-69
2022/07/05 08:08:56;;;;;;;21.10;10.52;;;;;;;19.09;65.87;102133.56;5116359;27;20694;-69
2022/07/05 08:11:21;;;;;;;18.77;10.77;;;;;;;19.15;65.24;102139.34;5134818;27;20061;-69
2022/07/05 08:13:47;;;;;;;15.98;10.55;;;;;;;19.12;65.57;102136.00;5132585;27;20066;-69
2022/07/05 08:16:15;;;;;;;17.95;11.00;;;;;;;19.09;64.93;102147.03;5110935;27;20050;-67
2022/07/05 08:21:31;;;;;;;16.73;11.07;;;;;;;19.30;65.53;102142.66;5119223;27;20046;-67
2022/07/05 08:24:10;;;;;;;19.15;11.25;;;;;;;19.43;65.76;102140.69;5116958;27;20035;-62
2022/07/05 08:26:36;;;;;;;17.23;11.10;;;;;;;19.52;64.67;102136.41;5134889;27;20023;-71
2022/07/05 08:29:05;;;;;;;19.02;11.23;;;;;;;19.72;66.04;102143.78;5115968;27;20474;-73
2022/07/05 08:31:36;;;;;;;17.23;10.68;;;;;;;19.85;65.36;102149.03;5134929;27;20068;-64
2022/07/05 08:34:04;;;;;;;17.52;10.60;;;;;;;19.90;63.71;102143.25;5133287;27;20537;-64
2022/07/05 08:36:30;;;;;;;21.00;10.77;;;;;;;19.99;63.75;102147.91;5132820;27;20019;-62
2022/07/05 08:38:58;;;;;;;20.15;10.98;;;;;;;20.19;63.44;102144.41;5126726;27;20288;-62
2022/07/05 08:41:26;;;;;;;19.25;10.57;;;;;;;20.18;62.33;102139.16;5119250;27;20028;-62
2022/07/05 08:43:52;;;;;;;17.58;9.85;;;;;;;20.28;62.03;102128.41;5113982;27;20100;-62
2022/07/05 08:46:19;;;;;;;21.15;9.88;;;;;;;20.35;62.19;102130.50;5111927;27;20046;-61
2022/07/05 08:48:49;;;;;;;22.75;9.57;;;;;;;20.52;62.50;102139.88;5131512;27;20034;-62
2022/07/05 08:51:23;;;;;;;19.15;8.93;;;;;;;20.64;61.80;102137.97;5133066;27;20019;-62
2022/07/05 08:53:51;;;;;;;15.63;8.52;;;;;;;20.69;61.25;102143.00;5129223;27;20726;-61
2022/07/05 08:56:18;;;;;;;15.77;10.20;;;;;;;20.53;61.23;102129.91;5133827;27;20026;-63
2022/07/05 08:58:44;;;;;;;15.77;10.27;;;;;;;20.70;60.94;102131.19;5133527;27;20023;-61
2022/07/05 09:01:11;;;;;;;13.88;9.35;;;;;;;20.93;60.91;102140.91;5113954;27;20031;-61
2022/07/05 09:03:43;;;;;;;15.95;8.55;;;;;;;21.11;58.79;102133.03;5129686;27;20034;-62
2022/07/05 09:06:15;;;;;;;14.55;7.32;;;;;;;21.45;57.20;102130.94;5114162;27;20355;-61
2022/07/05 09:08:41;;;;;;;13.32;5.93;;;;;;;21.45;54.98;102140.94;5114106;27;20050;-61
2022/07/05 09:11:09;;;;;;;11.20;5.40;;;;;;;21.39;54.83;102149.59;5098045;27;20031;-62
2022/07/05 09:13:36;;;;;;;14.15;8.02;;;;;;;21.25;55.65;102153.47;5133037;27;20031;-61
2022/07/05 09:16:02;;;;;;;17.50;9.00;;;;;;;21.20;55.92;102147.59;5131395;27;20482;-62
2022/07/05 09:18:45;;;;;;;11.82;7.45;;;;;;;21.28;56.88;102153.19;5129651;27;20041;-62
2022/07/05 09:21:19;;;;;;;11.43;6.10;;;;;;;21.30;58.88;102148.53;5130070;27;20105;-61
2022/07/05 09:23:54;;;;;;;12.55;5.95;;;;;;;21.14;55.24;102138.16;5133223;27;20023;-61
2022/07/05 09:26:19;;;;;;;7.65;4.65;;;;;;;21.17;56.38;102145.16;5130472;27;20135;-61
2022/07/05 09:28:53;;;;;;;13.60;5.85;;;;;;;21.27;55.17;102149.63;5115252;27;20165;-60
2022/07/05 09:31:36;;;;;;;10.88;5.30;;;;;;;21.49;55.21;102148.63;5133461;27;20474;-62
2022/07/05 09:34:06;;;;;;;11.18;5.93;;;;;;;21.67;53.55;102150.69;5131357;27;20126;-61
2022/07/05 09:36:50;;;;;;;12.50;5.53;;;;;;;21.93;54.00;102146.47;5131491;27;20030;-60
2022/07/05 09:39:16;;;;;;;9.30;5.20;;;;;;;22.11;51.64;102140.38;5133141;27;20030;-60
2022/07/05 09:41:42;;;;;;;11.27;5.03;;;;;;;22.10;50.48;102138.69;5133362;27;20027;-63
2022/07/05 09:44:08;;;;;;;12.38;5.70;;;;;;;22.08;53.08;102137.94;5114019;27;20031;-62
2022/07/05 09:46:35;;;;;;;10.32;4.88;;;;;;;22.13;50.96;102133.81;5097620;27;20035;-60
2022/07/05 09:49:03;;;;;;;9.40;5.00;;;;;;;22.13;50.75;102132.97;5114647;27;20360;-59
2022/07/05 09:51:28;;;;;;;8.88;4.78;;;;;;;21.97;50.45;102131.69;5113956;27;20041;-59
2022/07/05 09:53:59;;;;;;;8.48;4.13;;;;;;;21.89;52.40;102136.94;5131879;27;20027;-61
2022/07/05 09:56:29;;;;;;;10.90;4.78;;;;;;;21.85;50.70;102134.63;5112629;27;20427;-60
2022/07/05 09:58:55;;;;;;;6.60;3.63;;;;;;;21.80;50.08;102118.81;5112150;27;20031;-60
2022/07/05 10:01:28;;;;;;;6.60;3.50;;;;;;;21.74;48.98;102128.34;5130918;27;20027;-60
2022/07/05 10:03:54;;;;;;;5.63;3.40;;;;;;;21.66;48.11;102133.59;5113178;27;20154;-60
2022/07/05 10:06:24;;;;;;;6.75;3.35;;;;;;;21.60;49.46;102134.13;5111467;27;20023;-60
2022/07/05 10:08:52;;;;;;;6.20;3.22;;;;;;;21.47;50.90;102123.56;5113251;27;20469;-60
2022/07/05 10:11:18;;;;;;;4.97;3.90;;;;;;;21.48;51.39;102124.41;5113695;27;20063;-60
2022/07/05 10:13:49;;;;;;;8.73;3.95;;;;;;;21.55;51.84;102128.25;5114204;27;20370;-60
2022/07/05 10:16:17;;;;;;;9.65;4.35;;;;;;;21.60;51.21;102134.13;5131326;27;20019;-60
2022/07/05 10:18:44;;;;;;;6.63;3.92;;;;;;;21.46;52.06;102148.03;5132115;27;20031;-60
2022/07/05 10:21:15;;;;;;;8.03;4.37;;;;;;;21.41;52.07;102140.31;5129907;27;20384;-60
2022/07/05 10:23:45;;;;;;;11.15;4.43;;;;;;;21.37;50.41;102135.31;5131887;27;20357;-60
2022/07/05 10:26:12;;;;;;;7.53;4.65;;;;;;;21.39;49.41;102145.03;5131969;27;20023;-61
2022/07/05 10:28:39;;;;;;;7.53;4.70;;;;;;;21.42;48.95;102142.06;5132440;27;20050;-60
2022/07/05 10:31:06;;;;;;;6.15;4.88;;;;;;;21.69;50.58;102136.00;5132503;27;20025;-60
2022/07/05 10:33:32;;;;;;;7.97;3.65;;;;;;;21.97;48.56;102139.81;5132341;27;20075;-60
2022/07/05 10:35:58;;;;;;;8.98;3.45;;;;;;;22.00;48.10;102131.41;5113288;27;20078;-61
2022/07/05 10:38:24;;;;;;;4.78;2.85;;;;;;;;;;5112528;27;20094;-61
2022/07/05 10:40:58;;;;;;;7.70;3.20;;;;;;;22.37;47.44;102138.88;5095144;27;20023;-60
2022/07/05 10:43:26;;;;;;;8.00;3.58;;;;;;;22.34;46.32;102130.16;5112753;27;20533;-60
2022/07/05 10:45:52;;;;;;;7.25;3.63;;;;;;;22.49;46.89;102122.47;5112344;27;20051;-61
2022/07/05 10:48:19;;;;;;;5.35;2.63;;;;;;;22.77;45.52;102132.44;5113315;27;20042;-60
2022/07/05 10:51:08;;;;;;;4.95;3.00;;;;;;;23.27;44.94;102124.03;5131450;27;20019;-60
2022/07/05 10:53:36;;;;;;;4.70;2.60;;;;;;;23.90;44.78;102117.88;5130613;27;20034;-61
2022/07/05 10:56:04;;;;;;;6.13;2.30;;;;;;;24.24;43.75;102117.22;5131439;27;20023;-61
2022/07/05 10:58:45;;;;;;;5.40;2.60;;;;;;;24.15;43.28;102124.44;5131208;27;20277;-61
2022/07/05 11:01:20;;;;;;;7.95;2.50;;;;;;;24.15;42.47;102131.72;5130911;27;20050;-60
2022/07/05 11:03:52;;;;;;;6.20;2.72;;;;;;;24.05;39.36;102139.09;5131059;27;20031;-61
2022/07/05 11:06:24;;;;;;;5.88;2.50;;;;;;;24.04;42.14;102138.25;5128991;27;20042;-61
2022/07/05 11:08:59;;;;;;;5.68;2.58;;;;;;;23.91;41.97;102143.19;5128399;27;20033;-61
2022/07/05 11:11:33;;;;;;;4.82;2.70;;;;;;;23.74;41.68;102145.72;5131011;27;20026;-61
2022/07/05 11:14:01;;;;;;;11.20;2.67;;;;;;;23.46;42.76;102138.53;5131650;27;20035;-61
2022/07/05 11:16:35;;;;;;;3.67;2.17;;;;;;;23.32;42.93;102148.88;5131285;27;20023;-61
2022/07/05 11:19:16;;;;;;;4.10;2.30;;;;;;;23.28;45.33;102146.59;5131011;27;20416;-61
2022/07/05 11:22:01;;;;;;;4.10;2.03;;;;;;;23.16;44.07;102145.09;5130911;27;20019;-61
2022/07/05 11:24:32;;;;;;;4.65;2.25;;;;;;;22.94;44.61;102144.38;5130902;27;20462;-60
2022/07/05 11:26:59;;;;;;;4.65;2.00;;;;;;;22.95;45.54;102140.69;5112311;28;20032;-60
2022/07/05 11:29:41;;;;;;;9.70;2.58;;;;;;;23.00;45.63;102137.53;5110862;27;20481;-60